Kezdőlap
METAR-TAF:

METAR-TAF

Repülőterek :

Bermuda, Bermuda

földrajzi szélesség: 32-22N, földrajzi hosszúság: 064-41W, magasság: 6 m

Jelenlegi meteorológiai megfigyelések

A jelentés 45 perccel ezelõtt készült, 08:55 UTC
Keleti szél 15 kt
Hőmérséklet 18°C
Páratartalom 56%
Légköri nyomás 1029 hPa
Látótávolság 10 km, vagy több
Szakadozott felhőzet 4800 lábon

METAR: TXKF 090855Z 09015KT 9999 BKN048 18/09 Q1029

Idő: 05:40 (09:40 UTC)

Előrejelzés

A jelentés 3 órával és 55 perccel ezelõtt készült, 05:45 UTC
Az előrejelzés 09-én 06 óra UTC és 10-én 06 óra UTC között érvényes
Keleti szél 15 kt
Látótávolság 10 km, vagy több
Szórványos felhőzet 4000 lábon

TAF: TXKF 090545Z 0906/1006 10015KT 9999 SCT040

Meteorológiai megfigyelések és előrejelzések több, mint 4000 repülőtéren (METAR és TAF jelentéseket).

A térképen piros és sárga pontok jelzik az elérhető meteorológiai állomásokat.

Mozgassa az egeret a pont fölött, hogy megjelenjen az állomás neve.

Azután kattintson az időjárási megfigyelések és előrejelzések megtekintéséhez.

A térkép megváltoztatása: kattintson a fekete keresztel jelölt zöld gombra ráközelítéshez, a vonallal jelölt zöld gombra távolításhoz, vagy a zöld nyilakra a szomszédos térképek eléréséhez.


METAR-TAF: